Newark, MD (21841)

1:32 AM EDT on April 01, 2015 (GMT -0400)
Gracie's Salty Eye | | Change Station
CLOSE
Current Station
Personal Weather Station
Location: Snow Hill, MD
Elevation: 3 ft
Nearby Weather Stations

Elev 3 ft 38.12 °N, 75.30 °W | Updated 8 seconds ago

Mostly Cloudy
Mostly Cloudy
43.2 °F
Feels Like 43 °F
N
1.6
Wind Variable Wind from SW
Gusts 14.5 mph

Today
High -- | Low -- °F
--% Chance of Precip.
Yesterday
High -- | Low -- °F
Precip. -- in
6:46 AM 7:24 PM
Waxing Gibbous, 91% visible
Pressure 29.86 in
Visibility 7.0 miles
Clouds Scattered Clouds 1200 ft
Mostly Cloudy 1700 ft
Windchill 43 °F
Dew Point 38 °F
Humidity 83%
Rainfall 0.00 in
Snow Depth Not available.
UV 0 out of 12
Pollen 8.80 out of 12
Air Quality Not available.
Flu Activity Not available.
SPECI KOXB 010517Z AUTO 35012G19KT 7SM SCT012 BKN017 06/03 A2986 RMK AO2 T00560033 TSNO

More Conditions Fewer Conditions

Pressure 29.86 in
Visibility 7.0 miles
Clouds Scattered Clouds 1200 ft
Mostly Cloudy 1700 ft
Windchill 43 °F
Dew Point 38 °F
Humidity 83%
Rainfall 0.00 in
Snow Depth Not available.
UV 0 out of 12
Pollen 8.80 out of 12
Air Quality Not available.
Flu Activity Not available.
SPECI KOXB 010517Z AUTO 35012G19KT 7SM SCT012 BKN017 06/03 A2986 RMK AO2 T00560033 TSNO

More Conditions Fewer Conditions

10-Day Weather Forecast

Almanac

Astronomy

Apr. 01, 2015 Rise Set
Actual Time
Civil Twilight
Nautical Twilight
Astronomical Twilight
Moon
Length of Visible Light
Length of Day
Tomorrow will be .
, % of the Moon is Illuminated

Today's Extremes

State Highs State Lows

Community

WunderPhotos

Upload Photos

1,809,919 photos uploaded!

WunderBlogs® & News

Nearby

Air Quality

  Air Quality AQ Index Pollutant
Not available.

Snow Depth

Station Depth Elevation

Earthquake Activity

City Distance Mag. Time & Date
Minimum magnitude displayed is 2.5.

Coastal Water Temperatures

Place Temperature

Stations

Nearby Weather Stations

Station Location Temp. Windchill Dew Point Humidity Wind Precip. Elev Updated Type